Time;durP1;ratioP1;P1;durP2;ratioP2;P2;SDS_P1;SDS_P2;PMS_P1;PMS_P2;Temp;Humidity;BMP_temperature;BMP_pressure;BME280_temperature;BME280_humidity;BME280_pressure;Samples;Min_cycle;Max_cycle;Signal;HPM_P1;HPM_P2
2022/09/03 00:00:55;;;;;;;2.30;2.10;;;17.10;99.90;;;;;;4968726;28;20640;-86
2022/09/03 00:03:32;;;;;;;2.10;2.00;;;17.10;99.90;;;;;;4970856;28;20790;-86
2022/09/03 00:06:16;;;;;;;2.70;2.20;;;17.10;99.90;;;;;;4985160;28;20439;-86
2022/09/03 00:08:58;;;;;;;2.73;2.57;;;17.10;99.90;;;;;;4974986;28;20459;-86
2022/09/03 00:11:31;;;;;;;2.47;2.37;;;16.90;99.90;;;;;;4980725;28;20467;-86
2022/09/03 00:14:02;;;;;;;2.27;2.07;;;16.90;99.90;;;;;;4992539;28;20463;-86
2022/09/03 00:16:35;;;;;;;2.10;2.00;;;16.90;99.90;;;;;;4985695;28;20441;-86
2022/09/03 00:19:02;;;;;;;4.70;2.47;;;17.00;99.90;;;;;;4973986;28;20444;-86
2022/09/03 00:21:43;;;;;;;2.40;2.30;;;17.00;99.90;;;;;;4976467;28;20467;-86
2022/09/03 00:24:13;;;;;;;2.60;2.40;;;16.90;99.90;;;;;;4970636;28;21003;-87
2022/09/03 00:26:43;;;;;;;2.03;1.93;;;16.80;99.90;;;;;;4971409;28;20459;-86
2022/09/03 00:29:15;;;;;;;4.30;2.50;;;16.80;99.90;;;;;;4979302;28;20448;-85
2022/09/03 00:31:46;;;;;;;2.20;2.00;;;16.80;99.90;;;;;;4974709;28;20471;-85
2022/09/03 00:34:29;;;;;;;2.80;2.27;;;16.90;99.90;;;;;;4973789;28;20448;-86
2022/09/03 00:36:55;;;;;;;2.30;2.10;;;16.90;99.90;;;;;;4992911;28;20463;-86
2022/09/03 00:39:24;;;;;;;2.90;2.30;;;17.00;99.90;;;;;;4969402;28;20532;-85
2022/09/03 00:42:08;;;;;;;1.93;1.83;;;17.00;99.90;;;;;;4979337;28;20512;-86
2022/09/03 00:45:16;;;;;;;3.73;2.53;;;17.10;99.90;;;;;;4983471;28;20446;-85
2022/09/03 00:48:03;;;;;;;2.03;1.90;;;17.10;99.90;;;;;;4960033;28;20979;-86
2022/09/03 00:50:34;;;;;;;2.90;2.00;;;17.20;99.90;;;;;;4983796;28;20475;-85
2022/09/03 00:53:08;;;;;;;2.60;2.40;;;17.30;99.90;;;;;;4992145;28;21500;-86
2022/09/03 00:56:14;;;;;;;2.00;1.90;;;17.30;99.90;;;;;;4981944;28;20478;-86
2022/09/03 00:59:26;;;;;;;2.40;2.23;;;17.40;99.90;;;;;;4993996;28;20895;-86
2022/09/03 01:02:04;;;;;;;2.40;2.20;;;17.40;99.90;;;;;;4934294;28;20568;-86
2022/09/03 01:04:37;;;;;;;2.40;2.20;;;17.40;99.90;;;;;;4970819;28;20432;-86
2022/09/03 01:07:14;;;;;;;2.07;1.90;;;17.40;99.90;;;;;;4987891;28;20444;-86
2022/09/03 01:09:53;;;;;;;2.47;2.37;;;17.20;99.90;;;;;;4993072;28;20534;-86
2022/09/03 01:12:37;;;;;;;1.80;1.70;;;17.30;99.90;;;;;;4980896;28;20431;-85
2022/09/03 01:15:28;;;;;;;2.23;2.13;;;17.30;99.90;;;;;;4972507;28;20447;-85
2022/09/03 01:18:34;;;;;;;2.30;2.10;;;17.20;99.90;;;;;;4980503;28;20444;-85
2022/09/03 01:21:35;;;;;;;2.33;2.23;;;17.20;99.90;;;;;;4980063;28;21011;-85
2022/09/03 01:24:27;;;;;;;2.20;2.00;;;17.30;99.90;;;;;;4989043;28;20858;-85
2022/09/03 01:27:04;;;;;;;2.00;1.90;;;17.30;99.90;;;;;;4986044;28;20473;-85
2022/09/03 01:29:34;;;;;;;2.60;2.40;;;17.30;99.90;;;;;;4974306;28;20443;-86
2022/09/03 01:32:14;;;;;;;2.77;2.20;;;17.30;99.90;;;;;;4985534;28;20479;-85
2022/09/03 01:35:03;;;;;;;6.70;2.23;;;17.20;99.90;;;;;;4972278;28;20527;-86
2022/09/03 01:38:20;;;;;;;2.60;2.50;;;17.20;99.90;;;;;;4977970;28;20465;-86
2022/09/03 01:44:09;;;;;;;2.60;2.40;;;17.10;99.90;;;;;;4995971;28;20466;-85
2022/09/03 01:46:44;;;;;;;2.13;2.03;;;17.00;99.90;;;;;;4984629;28;20463;-85
2022/09/03 01:49:44;;;;;;;4.07;2.30;;;16.90;99.90;;;;;;4973672;28;20459;-85
2022/09/03 01:52:19;;;;;;;2.20;2.10;;;16.90;99.90;;;;;;4975468;28;20772;-86
2022/09/03 01:55:04;;;;;;;2.23;2.13;;;16.80;99.90;;;;;;4982671;28;20541;-86
2022/09/03 01:57:49;;;;;;;2.20;2.10;;;16.80;99.90;;;;;;4971257;28;20818;-86
2022/09/03 02:00:19;;;;;;;2.53;2.13;;;16.80;99.90;;;;;;4984989;28;20463;-85
2022/09/03 02:02:47;;;;;;;2.63;2.03;;;16.80;99.90;;;;;;4963156;28;22167;-86
2022/09/03 02:05:19;;;;;;;2.40;2.30;;;16.80;99.90;;;;;;4978063;28;20452;-85
2022/09/03 02:07:57;;;;;;;2.17;2.07;;;16.80;99.90;;;;;;4979036;28;20956;-86
2022/09/03 02:10:30;;;;;;;3.73;2.50;;;16.70;99.90;;;;;;4974135;28;20486;-86
2022/09/03 02:13:09;;;;;;;2.70;2.50;;;16.70;99.90;;;;;;4978237;28;20792;-85
2022/09/03 02:15:37;;;;;;;2.60;2.50;;;16.70;99.90;;;;;;4976171;28;20474;-86
2022/09/03 02:18:09;;;;;;;4.00;2.60;;;16.70;99.90;;;;;;4977434;28;20440;-85
2022/09/03 02:20:36;;;;;;;2.53;2.40;;;16.70;99.90;;;;;;4972808;28;20468;-85
2022/09/03 02:23:01;;;;;;;2.40;2.20;;;16.70;99.90;;;;;;4971556;28;20448;-86
2022/09/03 02:25:36;;;;;;;2.53;2.33;;;16.70;99.90;;;;;;4974776;28;20447;-86
2022/09/03 02:28:04;;;;;;;2.53;2.33;;;16.60;99.90;;;;;;4970814;28;20192;-85
2022/09/03 02:30:30;;;;;;;4.13;2.33;;;16.60;99.90;;;;;;4967463;28;20440;-85
2022/09/03 02:32:55;;;;;;;3.30;3.10;;;16.60;99.90;;;;;;4970233;28;20447;-87
2022/09/03 02:35:21;;;;;;;2.60;2.50;;;16.50;99.90;;;;;;4975197;28;20502;-87
2022/09/03 02:37:47;;;;;;;2.70;2.50;;;16.40;99.90;;;;;;4980307;28;20219;-86
2022/09/03 02:40:12;;;;;;;3.17;2.83;;;16.30;99.90;;;;;;4977301;28;20440;-86
2022/09/03 02:42:38;;;;;;;2.30;2.10;;;16.20;99.90;;;;;;4979527;28;20332;-87
2022/09/03 02:45:13;;;;;;;2.47;2.37;;;16.20;99.90;;;;;;4971129;28;20214;-87
2022/09/03 02:47:43;;;;;;;4.73;2.57;;;16.30;99.90;;;;;;4978332;28;20331;-86
2022/09/03 02:50:09;;;;;;;2.93;2.63;;;16.20;99.90;;;;;;4969658;28;20436;-87
2022/09/03 02:52:35;;;;;;;4.77;2.60;;;16.10;99.90;;;;;;4974104;28;20849;-88
2022/09/03 02:55:00;;;;;;;4.00;2.90;;;16.10;99.90;;;;;;4975249;28;20197;-87
2022/09/03 02:57:27;;;;;;;3.40;2.70;;;15.90;99.90;;;;;;4967251;28;20280;-87
2022/09/03 02:59:53;;;;;;;2.23;2.13;;;15.90;99.90;;;;;;4966795;28;20196;-86
2022/09/03 03:02:18;;;;;;;2.53;2.43;;;15.90;99.90;;;;;;4972514;28;20495;-85
2022/09/03 03:04:44;;;;;;;2.83;2.60;;;15.80;99.90;;;;;;4977955;28;20204;-86
2022/09/03 03:07:09;;;;;;;3.17;2.93;;;15.80;99.90;;;;;;4981284;28;20576;-86
2022/09/03 03:09:35;;;;;;;2.97;2.77;;;15.90;99.90;;;;;;4979518;28;20608;-86
2022/09/03 03:12:01;;;;;;;2.90;2.50;;;15.90;99.90;;;;;;4979688;28;20185;-86
2022/09/03 03:14:26;;;;;;;3.07;2.87;;;15.90;99.90;;;;;;4977602;28;20484;-87
2022/09/03 03:16:52;;;;;;;3.10;2.90;;;15.90;99.90;;;;;;4973302;28;20185;-87
2022/09/03 03:19:17;;;;;;;3.03;2.80;;;15.90;99.90;;;;;;4976770;28;20197;-87
2022/09/03 03:21:43;;;;;;;2.70;2.60;;;15.90;99.90;;;;;;4974326;28;20212;-87
2022/09/03 03:24:09;;;;;;;3.37;3.07;;;15.90;99.90;;;;;;4975931;28;20284;-87
2022/09/03 03:26:34;;;;;;;2.77;2.57;;;15.80;99.90;;;;;;4980185;28;20291;-87
2022/09/03 03:29:03;;;;;;;6.13;3.10;;;15.70;99.90;;;;;;4976318;28;20239;-87
2022/09/03 03:31:29;;;;;;;2.67;2.53;;;15.60;99.90;;;;;;4993715;28;20185;-87
2022/09/03 03:33:58;;;;;;;4.50;3.10;;;15.50;99.90;;;;;;4970700;28;20962;-87
2022/09/03 03:36:26;;;;;;;2.97;2.77;;;15.40;99.90;;;;;;4983850;28;20461;-87
2022/09/03 03:38:56;;;;;;;3.97;2.80;;;15.40;99.90;;;;;;4972355;28;21016;-86
2022/09/03 03:41:33;;;;;;;2.67;2.57;;;15.40;99.90;;;;;;4997628;28;20483;-86
2022/09/03 03:44:14;;;;;;;4.50;3.07;;;15.30;99.90;;;;;;4986740;28;20884;-86
2022/09/03 03:46:43;;;;;;;3.50;3.30;;;15.30;99.90;;;;;;4987732;28;20692;-87
2022/09/03 03:49:09;;;;;;;3.20;3.00;;;15.30;99.90;;;;;;4989597;28;20438;-87
2022/09/03 03:51:39;;;;;;;3.30;3.10;;;15.30;99.90;;;;;;4992954;28;20771;-87
2022/09/03 03:54:10;;;;;;;3.37;3.07;;;15.40;99.90;;;;;;4977190;28;20544;-87
2022/09/03 03:56:35;;;;;;;2.93;2.73;;;15.40;99.90;;;;;;4973837;28;20450;-87
2022/09/03 03:59:01;;;;;;;3.03;2.87;;;15.50;99.90;;;;;;4973909;28;21138;-88
2022/09/03 04:01:28;;;;;;;2.87;2.67;;;15.50;99.90;;;;;;4997381;28;20650;-87
2022/09/03 04:03:58;;;;;;;2.97;2.87;;;15.40;99.90;;;;;;4973746;28;20451;-86
2022/09/03 04:07:00;;;;;;;3.30;3.00;;;15.50;99.90;;;;;;4973402;28;20455;-87
2022/09/03 04:09:27;;;;;;;3.60;3.30;;;15.50;99.90;;;;;;4976008;28;20459;-87
2022/09/03 04:11:55;;;;;;;4.10;3.13;;;15.50;99.90;;;;;;4979800;28;20952;-87
2022/09/03 04:14:21;;;;;;;3.20;3.00;;;15.60;99.90;;;;;;4981799;28;20448;-87
2022/09/03 04:16:46;;;;;;;2.67;2.57;;;15.60;99.90;;;;;;4973635;28;20977;-87
2022/09/03 04:19:12;;;;;;;3.20;2.90;;;15.60;99.90;;;;;;4979149;28;20184;-87
2022/09/03 04:21:38;;;;;;;3.20;3.00;;;15.60;99.90;;;;;;4978800;28;20634;-87
2022/09/03 04:24:04;;;;;;;3.23;3.03;;;15.60;99.90;;;;;;4976192;28;20181;-88
2022/09/03 04:26:31;;;;;;;3.03;2.83;;;15.60;99.90;;;;;;4983215;28;20448;-87
2022/09/03 04:29:10;;;;;;;3.47;3.17;;;15.60;99.90;;;;;;4971643;28;20468;-88
2022/09/03 04:31:37;;;;;;;2.93;2.70;;;15.60;99.90;;;;;;4975333;28;20497;-87
2022/09/03 04:34:06;;;;;;;4.60;2.87;;;15.60;99.90;;;;;;4979655;28;20805;-86
2022/09/03 04:36:33;;;;;;;3.50;3.30;;;15.60;99.90;;;;;;4967509;28;20444;-87
2022/09/03 04:39:00;;;;;;;2.80;2.60;;;15.70;99.90;;;;;;4977433;28;21379;-87
2022/09/03 04:41:28;;;;;;;3.33;2.80;;;15.70;99.90;;;;;;4982632;28;20999;-86
2022/09/03 04:43:56;;;;;;;3.40;3.20;;;15.80;99.90;;;;;;4981454;28;20770;-87
2022/09/03 04:46:32;;;;;;;3.43;3.23;;;15.80;99.90;;;;;;4965651;28;21279;-86
2022/09/03 04:48:57;;;;;;;3.60;3.30;;;15.80;99.90;;;;;;4982229;28;20477;-87
2022/09/03 04:51:26;;;;;;;3.07;2.83;;;15.80;99.90;;;;;;4965865;28;20539;-87
2022/09/03 04:54:09;;;;;;;3.00;2.80;;;15.80;99.90;;;;;;4970676;28;20307;-86
2022/09/03 04:56:37;;;;;;;3.73;3.53;;;15.70;99.90;;;;;;4966397;28;20449;-87
2022/09/03 04:59:08;;;;;;;3.23;3.00;;;15.80;99.90;;;;;;4974363;28;20439;-87
2022/09/03 05:01:36;;;;;;;3.30;3.00;;;15.80;99.90;;;;;;4971457;28;20847;-88
2022/09/03 05:04:02;;;;;;;3.30;3.10;;;15.70;99.90;;;;;;4961084;28;20435;-88
2022/09/03 05:06:29;;;;;;;3.40;3.10;;;15.80;99.90;;;;;;4969965;28;21119;-86
2022/09/03 05:08:56;;;;;;;3.13;2.93;;;15.80;99.90;;;;;;4977443;28;20463;-89
2022/09/03 05:11:23;;;;;;;3.20;3.00;;;15.70;99.90;;;;;;4982694;28;20436;-88
2022/09/03 05:13:51;;;;;;;3.47;3.27;;;15.80;99.90;;;;;;4991981;28;21308;-87
2022/09/03 05:16:17;;;;;;;3.30;3.10;;;15.90;99.90;;;;;;4969992;28;20448;-89
2022/09/03 05:18:43;;;;;;;3.40;3.10;;;16.00;99.90;;;;;;4986991;28;21264;-88
2022/09/03 05:21:11;;;;;;;2.90;2.70;;;16.00;99.90;;;;;;4978403;28;20896;-87
2022/09/03 05:23:41;;;;;;;2.83;2.73;;;15.90;99.90;;;;;;4987167;28;20931;-88
2022/09/03 05:26:13;;;;;;;3.10;2.90;;;15.90;99.90;;;;;;4975524;28;20469;-87
2022/09/03 05:28:41;;;;;;;3.00;2.80;;;15.90;99.90;;;;;;4973393;28;20438;-87
2022/09/03 05:31:15;;;;;;;3.70;2.90;;;15.90;99.90;;;;;;4990515;28;20454;-87
2022/09/03 05:33:50;;;;;;;3.27;2.80;;;15.90;99.90;;;;;;4973819;28;20439;-87
2022/09/03 05:36:18;;;;;;;3.07;2.87;;;16.00;99.90;;;;;;4961151;28;20942;-89
2022/09/03 05:38:47;;;;;;;4.67;4.27;;;16.00;99.90;;;;;;4968832;28;20521;-89
2022/09/03 05:41:28;;;;;;;3.70;3.40;;;16.00;99.90;;;;;;4971763;28;21194;-86
2022/09/03 05:44:00;;;;;;;3.70;3.40;;;16.10;99.90;;;;;;4971675;28;20448;-87
2022/09/03 05:46:30;;;;;;;3.67;3.47;;;16.20;99.90;;;;;;4976713;28;20505;-86
2022/09/03 05:49:10;;;;;;;3.73;3.53;;;16.40;99.90;;;;;;4965127;28;20459;-86
2022/09/03 05:51:38;;;;;;;3.10;2.97;;;16.40;99.90;;;;;;4962670;28;20452;-87
2022/09/03 05:54:11;;;;;;;3.40;3.10;;;16.60;99.90;;;;;;4970313;28;20455;-85
2022/09/03 05:56:41;;;;;;;3.33;3.13;;;16.70;99.90;;;;;;4967495;28;20932;-87
2022/09/03 05:59:18;;;;;;;3.43;3.23;;;16.70;99.90;;;;;;4968868;28;20527;-86
2022/09/03 06:01:45;;;;;;;3.60;3.30;;;16.70;99.90;;;;;;4960119;28;20514;-87
2022/09/03 06:04:13;;;;;;;3.27;2.70;;;16.70;99.90;;;;;;4960026;28;20452;-87
2022/09/03 06:06:41;;;;;;;3.83;3.53;;;16.70;99.90;;;;;;4956423;28;20458;-88
2022/09/03 06:09:15;;;;;;;3.73;3.40;;;16.70;99.90;;;;;;4972854;28;20457;-89
2022/09/03 06:11:42;;;;;;;3.30;3.10;;;16.70;99.90;;;;;;4977199;28;20463;-88
2022/09/03 06:14:14;;;;;;;3.20;3.00;;;16.90;99.90;;;;;;4968137;28;20438;-86
2022/09/03 06:16:42;;;;;;;2.83;2.63;;;17.00;99.90;;;;;;4959594;28;20452;-84
2022/09/03 06:19:09;;;;;;;3.10;2.90;;;17.10;99.90;;;;;;4962200;28;20436;-85
2022/09/03 06:21:36;;;;;;;3.93;3.43;;;17.20;99.90;;;;;;4961875;28;20534;-85
2022/09/03 06:24:02;;;;;;;4.00;3.20;;;17.20;99.90;;;;;;4970626;28;20762;-85
2022/09/03 06:26:28;;;;;;;3.70;3.40;;;17.20;99.90;;;;;;4974952;28;20815;-85
2022/09/03 06:28:55;;;;;;;4.17;3.77;;;17.20;99.90;;;;;;4978683;28;20189;-86
2022/09/03 06:31:21;;;;;;;5.00;4.03;;;17.30;99.90;;;;;;4970303;28;20443;-85
2022/09/03 06:33:47;;;;;;;3.80;3.60;;;17.40;99.90;;;;;;4995048;28;20440;-85
2022/09/03 06:36:16;;;;;;;3.87;3.57;;;17.50;99.90;;;;;;4972626;28;20440;-86
2022/09/03 06:38:42;;;;;;;4.37;4.07;;;17.40;99.90;;;;;;4980324;28;20431;-86
2022/09/03 06:41:23;;;;;;;4.10;3.80;;;17.40;99.90;;;;;;4979535;28;20478;-85
2022/09/03 06:43:53;;;;;;;4.60;4.20;;;17.40;99.90;;;;;;4983286;28;20832;-85
2022/09/03 06:46:21;;;;;;;4.20;4.00;;;17.50;99.90;;;;;;4970242;28;20484;-86
2022/09/03 06:48:47;;;;;;;4.10;3.80;;;17.60;99.90;;;;;;4976847;28;20489;-85
2022/09/03 06:51:15;;;;;;;4.30;4.00;;;17.80;99.90;;;;;;4970706;28;21022;-84
2022/09/03 06:53:44;;;;;;;4.30;3.90;;;17.90;99.90;;;;;;4970255;28;20187;-86
2022/09/03 06:56:15;;;;;;;4.27;3.87;;;18.10;99.90;;;;;;4980638;28;20459;-86
2022/09/03 06:58:46;;;;;;;3.93;3.63;;;18.10;99.90;;;;;;4967808;28;20435;-86
2022/09/03 07:01:15;;;;;;;6.63;4.03;;;18.20;99.90;;;;;;4973585;28;20472;-85
2022/09/03 07:03:42;;;;;;;4.50;4.20;;;18.30;99.90;;;;;;4983302;28;20930;-85
2022/09/03 07:06:13;;;;;;;3.87;3.57;;;18.40;99.90;;;;;;4983363;28;20447;-85
2022/09/03 07:08:41;;;;;;;4.50;4.10;;;18.40;99.90;;;;;;4970908;28;21013;-85
2022/09/03 07:11:12;;;;;;;3.63;3.40;;;18.50;99.90;;;;;;4983478;28;21470;-84
2022/09/03 07:13:40;;;;;;;4.60;4.03;;;18.60;99.90;;;;;;4993394;28;20576;-85
2022/09/03 07:16:09;;;;;;;3.70;3.50;;;18.60;99.90;;;;;;4977387;28;20522;-86
2022/09/03 07:18:38;;;;;;;4.00;3.70;;;18.50;99.90;;;;;;4985623;28;20451;-85
2022/09/03 07:21:06;;;;;;;4.17;3.90;;;18.50;99.90;;;;;;4991233;28;20488;-85
2022/09/03 07:23:33;;;;;;;3.73;3.43;;;18.40;99.90;;;;;;4985700;28;20804;-86
2022/09/03 07:26:02;;;;;;;3.70;3.50;;;18.50;99.90;;;;;;4975907;28;20446;-86
2022/09/03 07:28:29;;;;;;;3.67;3.47;;;18.40;99.90;;;;;;4983883;28;20440;-86
2022/09/03 07:31:01;;;;;;;3.80;3.60;;;18.60;99.90;;;;;;4986242;28;20436;-85
2022/09/03 07:33:28;;;;;;;4.53;4.13;;;18.70;99.90;;;;;;4981646;28;20448;-85
2022/09/03 07:35:54;;;;;;;4.73;4.23;;;18.80;99.90;;;;;;4980262;28;20437;-85
2022/09/03 07:38:20;;;;;;;4.90;4.43;;;18.80;99.90;;;;;;4985113;28;20973;-86
2022/09/03 07:40:46;;;;;;;4.20;3.90;;;18.90;99.90;;;;;;4987095;28;20217;-85
2022/09/03 07:43:12;;;;;;;4.37;4.07;;;19.00;99.90;;;;;;4990655;28;20609;-85
2022/09/03 07:45:38;;;;;;;4.27;3.90;;;19.20;99.90;;;;;;4986023;28;20204;-86
2022/09/03 07:48:04;;;;;;;3.93;3.73;;;19.30;99.90;;;;;;4970662;28;20957;-85
2022/09/03 07:50:36;;;;;;;4.57;4.27;;;19.20;99.90;;;;;;4976862;28;20268;-85
2022/09/03 07:53:02;;;;;;;4.20;3.80;;;19.20;99.90;;;;;;4983802;28;20444;-85
2022/09/03 07:55:28;;;;;;;4.93;4.20;;;19.30;99.90;;;;;;4983821;28;20439;-85
2022/09/03 07:57:58;;;;;;;4.17;3.90;;;19.50;99.90;;;;;;4987886;28;20606;-85
2022/09/03 08:00:24;;;;;;;4.30;4.00;;;19.80;99.90;;;;;;4985569;28;20172;-85
2022/09/03 08:02:53;;;;;;;4.10;3.80;;;20.10;99.90;;;;;;4982651;28;20452;-86
2022/09/03 08:05:20;;;;;;;4.07;3.50;;;20.20;99.90;;;;;;4982841;28;20432;-85
2022/09/03 08:07:46;;;;;;;5.07;3.50;;;20.40;99.90;;;;;;4984642;28;20530;-86
2022/09/03 08:10:11;;;;;;;6.70;3.87;;;20.30;99.90;;;;;;4983315;28;20543;-85
2022/09/03 08:12:37;;;;;;;6.07;3.50;;;20.40;99.90;;;;;;4985064;28;20441;-85
2022/09/03 08:15:04;;;;;;;3.97;3.67;;;20.40;99.90;;;;;;4992916;28;20664;-84
2022/09/03 08:17:29;;;;;;;3.83;3.47;;;20.50;99.90;;;;;;4991316;28;20264;-86
2022/09/03 08:19:56;;;;;;;4.20;3.77;;;20.30;99.90;;;;;;4991323;28;20868;-86
2022/09/03 08:22:24;;;;;;;3.40;3.20;;;20.10;99.90;;;;;;4989031;28;20254;-85
2022/09/03 08:24:50;;;;;;;4.43;3.80;;;19.90;99.90;;;;;;4989295;28;20511;-85
2022/09/03 08:27:15;;;;;;;4.10;3.80;;;20.00;99.90;;;;;;5004606;28;20458;-86
2022/09/03 08:29:41;;;;;;;3.87;3.57;;;19.80;99.90;;;;;;5007865;28;20535;-86
2022/09/03 08:32:06;;;;;;;3.80;3.50;;;19.80;99.90;;;;;;4991016;28;20313;-84
2022/09/03 08:34:32;;;;;;;3.70;3.50;;;19.80;99.90;;;;;;4991734;28;20189;-84
2022/09/03 08:37:00;;;;;;;4.20;3.80;;;19.90;99.90;;;;;;4988807;28;20180;-86
2022/09/03 08:39:26;;;;;;;3.60;3.40;;;19.90;99.90;;;;;;4988294;28;20189;-86
2022/09/03 08:42:17;;;;;;;4.00;3.80;;;20.20;99.90;;;;;;4983890;28;20490;-86
2022/09/03 08:45:01;;;;;;;3.90;3.40;;;20.80;99.90;;;;;;5012030;28;20671;-85
2022/09/03 08:47:40;;;;;;;3.50;3.30;;;21.30;99.90;;;;;;4987442;28;20455;-84
2022/09/03 08:50:18;;;;;;;4.20;3.83;;;21.60;99.90;;;;;;4994029;28;20827;-86
2022/09/03 08:53:01;;;;;;;4.10;3.80;;;21.80;99.90;;;;;;5009557;28;20580;-85
2022/09/03 08:55:35;;;;;;;4.07;3.87;;;21.90;99.90;;;;;;5003026;28;20508;-86
2022/09/03 08:58:08;;;;;;;3.10;2.90;;;22.30;99.90;;;;;;4988010;28;21088;-86
2022/09/03 09:01:02;;;;;;;3.87;3.57;;;23.00;99.90;;;;;;4986700;28;20790;-86
2022/09/03 09:03:55;;;;;;;3.17;2.87;;;23.50;99.90;;;;;;4989669;28;20817;-86
2022/09/03 09:06:39;;;;;;;3.33;3.13;;;23.70;99.70;;;;;;4990056;28;20486;-86
2022/09/03 09:09:34;;;;;;;3.77;3.47;;;22.60;99.30;;;;;;4999786;28;20505;-85
2022/09/03 09:12:35;;;;;;;3.80;3.50;;;21.70;99.90;;;;;;4988533;28;20503;-86
2022/09/03 09:15:19;;;;;;;3.57;3.27;;;21.20;99.90;;;;;;4970921;28;20427;-84
2022/09/03 09:18:19;;;;;;;3.70;3.40;;;21.50;99.90;;;;;;4999384;28;20871;-86
2022/09/03 09:21:01;;;;;;;3.73;3.27;;;21.70;99.90;;;;;;5000018;28;20455;-85
2022/09/03 09:23:48;;;;;;;3.30;3.10;;;21.80;99.90;;;;;;4987373;28;20458;-85
2022/09/03 09:26:17;;;;;;;3.47;3.17;;;22.20;99.90;;;;;;4985101;28;20447;-85
2022/09/03 09:28:46;;;;;;;4.10;3.70;;;22.50;99.90;;;;;;5004599;28;20582;-86
2022/09/03 09:31:15;;;;;;;3.40;3.20;;;22.50;99.90;;;;;;4991843;28;20483;-86
2022/09/03 09:33:41;;;;;;;4.57;3.40;;;23.00;99.90;;;;;;4988734;28;20446;-85
2022/09/03 09:36:11;;;;;;;3.30;3.10;;;23.40;99.90;;;;;;4990610;28;20457;-85
2022/09/03 09:38:38;;;;;;;3.50;3.30;;;23.50;99.90;;;;;;4986190;28;20181;-86
2022/09/03 09:41:14;;;;;;;3.47;3.27;;;23.10;99.90;;;;;;4982440;28;20451;-86
2022/09/03 09:43:40;;;;;;;4.23;3.90;;;22.80;99.90;;;;;;4985306;28;20478;-86
2022/09/03 09:46:24;;;;;;;4.27;3.97;;;22.30;99.90;;;;;;4988544;28;20428;-86
2022/09/03 09:48:55;;;;;;;4.00;3.80;;;22.20;99.90;;;;;;4985640;28;20443;-86
2022/09/03 09:51:31;;;;;;;4.00;3.70;;;22.30;99.90;;;;;;4988554;28;21807;-85
2022/09/03 09:54:18;;;;;;;3.97;3.77;;;22.50;99.90;;;;;;4988031;28;20822;-85
2022/09/03 09:56:45;;;;;;;4.17;3.77;;;22.90;99.90;;;;;;4992707;28;20450;-84
2022/09/03 09:59:13;;;;;;;4.23;3.93;;;22.60;99.90;;;;;;4986868;28;20971;-84
2022/09/03 10:01:41;;;;;;;3.60;3.40;;;22.40;99.90;;;;;;4987094;28;20445;-84
2022/09/03 10:04:23;;;;;;;3.97;3.77;;;22.40;99.90;;;;;;4986782;28;20441;-85
2022/09/03 10:07:00;;;;;;;3.90;3.60;;;23.10;99.90;;;;;;4978113;28;20448;-96
2022/09/03 10:09:28;;;;;;;3.47;3.13;;;23.90;99.90;;;;;;5002976;28;20443;-93
2022/09/03 10:12:03;;;;;;;4.67;3.57;;;24.30;99.80;;;;;;4987578;28;20476;-96
2022/09/03 10:14:40;;;;;;;3.70;3.50;;;24.70;98.10;;;;;;4995827;28;20465;-93
2022/09/03 10:17:54;;;;;;;3.73;3.50;;;24.60;96.50;;;;;;5088136;22;20472;-96
2022/09/03 10:20:57;;;;;;;3.80;3.50;;;24.60;96.70;;;;;;5216731;22;20608;-96
2022/09/03 10:23:29;;;;;;;3.30;3.10;;;24.60;96.20;;;;;;4992183;28;20460;-96
2022/09/03 10:26:10;;;;;;;3.57;3.27;;;24.60;98.10;;;;;;5001080;28;20438;-96
2022/09/03 10:28:41;;;;;;;3.50;3.27;;;24.60;97.30;;;;;;5003254;28;20455;-94
2022/09/03 10:31:25;;;;;;;3.47;3.27;;;24.60;97.70;;;;;;5007471;28;20545;-93
2022/09/03 10:34:17;;;;;;;5.67;3.67;;;24.60;96.50;;;;;;5000379;28;20444;-93
2022/09/03 10:37:09;;;;;;;3.97;3.67;;;24.70;96.10;;;;;;5013245;28;20447;-96
2022/09/03 10:39:59;;;;;;;3.63;3.43;;;24.60;96.80;;;;;;4994033;28;20794;-92
2022/09/03 10:42:30;;;;;;;4.03;3.73;;;24.60;96.80;;;;;;4995633;28;20471;-91
2022/09/03 10:45:08;;;;;;;4.10;3.70;;;24.40;97.20;;;;;;4997233;28;20434;-93
2022/09/03 10:47:43;;;;;;;4.60;4.30;;;24.30;98.50;;;;;;5008034;28;20435;-95
2022/09/03 10:50:24;;;;;;;4.70;3.77;;;24.20;97.90;;;;;;5020518;28;20438;-96
2022/09/03 10:53:07;;;;;;;4.07;3.80;;;24.20;97.80;;;;;;5014403;28;20476;-96
2022/09/03 10:56:08;;;;;;;3.83;3.53;;;24.10;97.70;;;;;;5000115;28;21017;-95
2022/09/03 10:59:00;;;;;;;4.27;3.97;;;24.20;96.60;;;;;;5012000;28;20461;-91
2022/09/03 11:01:40;;;;;;;5.03;3.50;;;24.20;96.70;;;;;;5008714;28;20778;-96
2022/09/03 11:04:48;;;;;;;3.93;3.20;;;24.30;97.10;;;;;;5012860;28;20438;-94
2022/09/03 11:07:19;;;;;;;4.47;4.10;;;24.20;97.20;;;;;;5020561;28;20808;-93
2022/09/03 11:09:59;;;;;;;10.80;6.10;;;24.00;98.90;;;;;;5001448;28;20477;-94
2022/09/03 11:12:33;;;;;;;4.07;3.80;;;23.50;98.90;;;;;;5018012;28;20474;-90
2022/09/03 11:15:11;;;;;;;3.53;3.33;;;23.50;98.60;;;;;;5024087;28;20430;-91
2022/09/03 11:18:02;;;;;;;3.90;3.60;;;23.60;97.90;;;;;;5025861;28;20431;-91
2022/09/03 11:20:29;;;;;;;4.17;3.87;;;23.50;98.90;;;;;;5006461;28;20550;-91
2022/09/03 11:23:04;;;;;;;10.30;5.40;;;23.40;98.90;;;;;;5008261;28;21186;-96
2022/09/03 11:25:51;;;;;;;33.23;16.73;;;23.40;99.90;;;;;;5018165;28;20442;-93
2022/09/03 11:28:37;;;;;;;6.70;6.00;;;23.10;99.90;;;;;;5017509;28;20442;-96
2022/09/03 11:31:34;;;;;;;4.60;4.30;;;22.80;99.90;;;;;;5013707;28;20971;-95
2022/09/03 11:34:31;;;;;;;5.27;4.90;;;22.70;99.90;;;;;;5023860;28;20524;-89
2022/09/03 11:37:18;;;;;;;4.73;4.43;;;22.60;99.90;;;;;;4993086;28;21035;-91
2022/09/03 11:39:56;;;;;;;4.30;4.00;;;22.30;99.90;;;;;;4982137;28;20901;-91
2022/09/03 11:42:25;;;;;;;5.30;4.90;;;22.10;99.90;;;;;;5000929;28;20572;-89
2022/09/03 11:44:51;;;;;;;4.57;4.17;;;21.90;99.90;;;;;;5002721;28;20546;-91
2022/09/03 11:47:36;;;;;;;3.90;3.63;;;21.60;99.90;;;;;;5002076;28;20565;-90
2022/09/03 11:50:16;;;;;;;3.70;3.40;;;21.40;99.90;;;;;;5002384;28;20651;-91
2022/09/03 11:52:41;;;;;;;4.40;4.10;;;21.20;99.90;;;;;;4997697;28;20958;-88
2022/09/03 11:55:07;;;;;;;4.00;3.70;;;21.20;99.90;;;;;;5006880;28;20443;-85
2022/09/03 11:57:40;;;;;;;4.67;4.27;;;21.20;99.90;;;;;;5001715;28;20663;-87
2022/09/03 12:00:11;;;;;;;4.43;4.03;;;21.10;99.90;;;;;;5013529;28;20184;-86
2022/09/03 12:02:49;;;;;;;4.70;4.30;;;21.10;99.90;;;;;;4999581;28;20446;-87
2022/09/03 12:05:55;;;;;;;4.53;3.70;;;21.10;99.90;;;;;;4998404;28;21058;-88
2022/09/03 12:08:45;;;;;;;4.10;3.80;;;21.00;99.90;;;;;;5004627;28;20442;-88
2022/09/03 12:11:34;;;;;;;4.53;4.20;;;20.90;99.90;;;;;;5003445;28;20467;-87
2022/09/03 12:14:26;;;;;;;2.93;2.07;;;20.70;99.90;;;;;;4999997;28;20462;-89
2022/09/03 12:17:30;;;;;;;7.00;1.60;;;20.00;99.90;;;;;;5015111;28;20470;-86
2022/09/03 12:19:57;;;;;;;3.93;1.87;;;19.00;99.90;;;;;;4993180;28;21094;-89
2022/09/03 12:22:30;;;;;;;6.27;1.80;;;17.80;99.90;;;;;;5000838;28;20537;-90
2022/09/03 12:25:07;;;;;;;2.93;1.73;;;17.20;99.90;;;;;;5000447;28;20534;-89
2022/09/03 12:27:33;;;;;;;3.73;2.00;;;16.80;99.90;;;;;;4997230;28;20535;-90
2022/09/03 12:30:01;;;;;;;3.13;2.20;;;16.70;99.90;;;;;;4999319;28;20956;-89
2022/09/03 12:32:30;;;;;;;5.77;2.20;;;16.60;99.90;;;;;;4999621;28;20227;-89
2022/09/03 12:34:57;;;;;;;2.60;2.37;;;16.40;99.90;;;;;;5001803;28;20439;-88
2022/09/03 12:37:25;;;;;;;2.00;1.80;;;16.40;99.90;;;;;;4994567;28;21066;-89
2022/09/03 12:39:53;;;;;;;3.07;2.80;;;16.30;99.90;;;;;;4997563;28;21038;-88
2022/09/03 12:42:30;;;;;;;2.60;2.03;;;16.40;99.90;;;;;;4992557;28;20888;-89
2022/09/03 12:45:06;;;;;;;3.17;2.07;;;16.30;99.90;;;;;;5006518;28;20445;-88
2022/09/03 12:47:38;;;;;;;2.60;2.20;;;16.20;99.90;;;;;;4997576;28;20513;-88
2022/09/03 12:50:10;;;;;;;3.40;2.37;;;16.30;99.90;;;;;;4998986;28;20435;-88
2022/09/03 12:52:40;;;;;;;2.30;1.97;;;16.30;99.90;;;;;;4997823;28;20768;-89
2022/09/03 12:55:29;;;;;;;3.70;2.13;;;16.40;99.90;;;;;;4992305;28;20444;-87
2022/09/03 12:58:00;;;;;;;2.50;2.27;;;16.40;99.90;;;;;;5001012;28;20439;-88
2022/09/03 13:00:36;;;;;;;2.03;1.83;;;16.50;99.90;;;;;;5013069;28;20467;-89
2022/09/03 13:03:29;;;;;;;3.50;2.03;;;16.50;99.90;;;;;;4996354;28;20476;-89
2022/09/03 13:06:02;;;;;;;3.23;2.03;;;16.50;99.90;;;;;;4997271;28;20438;-90
2022/09/03 13:08:36;;;;;;;3.23;1.90;;;16.50;99.90;;;;;;5000088;28;20440;-90
2022/09/03 13:11:04;;;;;;;2.07;1.70;;;16.50;99.90;;;;;;4995020;28;20493;-90
2022/09/03 13:13:39;;;;;;;3.03;1.47;;;16.60;99.90;;;;;;5001641;28;20447;-89
2022/09/03 13:16:08;;;;;;;1.30;1.20;;;16.60;99.90;;;;;;5003644;28;20506;-88
2022/09/03 13:18:55;;;;;;;2.53;1.70;;;16.70;99.90;;;;;;4999234;28;20442;-89
2022/09/03 13:21:48;;;;;;;1.90;1.50;;;16.70;99.90;;;;;;5013797;28;20500;-89
2022/09/03 13:24:48;;;;;;;1.97;1.47;;;16.80;99.90;;;;;;5001389;28;20445;-88